| time (UTC) | temp F | wind direction | speed MPH | gust MPH | rain 1hr in | rain 24hr in | rain mn in | humidity % | barometer mb |
| 20260507191603 | 63 | 275 | 12.0 | 27.0 | 0.00 | 0.29 | 0.22 | 32 | 1006.7 |
| 20260507190623 | 63 | 275 | 13.0 | 26.0 | 0.00 | 0.29 | 0.22 | 33 | 1006.6 |
| 20260507183602 | 64 | 314 | 14.0 | 22.0 | 0.00 | 0.29 | 0.22 | 35 | 1007.1 |
| 20260507181644 | 63 | 319 | 10.0 | 23.0 | 0.00 | 0.29 | 0.22 | 36 | 1007.0 |
| 20260507180603 | 63 | 286 | 19.0 | 25.0 | 0.00 | 0.29 | 0.22 | 36 | 1007.0 |
| 20260507175602 | 63 | 290 | 8.0 | 16.0 | 0.00 | 0.29 | 0.22 | 35 | 1007.3 |
| 20260507174603 | 63 | 294 | 16.0 | 21.0 | 0.00 | 0.29 | 0.22 | 40 | 1007.1 |
| 20260507173602 | 63 | 270 | 14.0 | 24.0 | 0.00 | 0.29 | 0.22 | 42 | 1007.1 |
| 20260507172603 | 62 | 261 | 15.0 | 21.0 | 0.00 | 0.29 | 0.22 | 41 | 1007.3 |
| 20260507171644 | 61 | 279 | 9.0 | 23.0 | 0.00 | 0.29 | 0.22 | 43 | 1007.5 |
| 20260507170603 | 62 | 290 | 15.0 | 19.0 | 0.00 | 0.29 | 0.22 | 42 | 1007.4 |
| 20260507165603 | 62 | 285 | 13.0 | 22.0 | 0.00 | 0.29 | 0.22 | 45 | 1007.6 |
| 20260507163602 | 61 | 265 | 8.0 | 21.0 | 0.00 | 0.29 | 0.22 | 47 | 1007.7 |
| 20260507162603 | 62 | 288 | 14.0 | 21.0 | 0.00 | 0.29 | 0.22 | 50 | 1007.7 |
| 20260507161602 | 61 | 272 | 11.0 | 20.0 | 0.00 | 0.29 | 0.22 | 53 | 1007.9 |
| 20260507160624 | 60 | 273 | 14.0 | 19.0 | 0.00 | 0.29 | 0.22 | 57 | 1008.0 |
| 20260507155603 | 59 | 309 | 8.0 | 15.0 | 0.00 | 0.29 | 0.22 | 58 | 1008.0 |
| 20260507153603 | 59 | 271 | 10.0 | 19.0 | 0.00 | 0.29 | 0.22 | 63 | 1008.3 |
| 20260507152603 | 58 | 284 | 13.0 | 20.0 | 0.00 | 0.29 | 0.22 | 59 | 1008.3 |
| 20260507151645 | 58 | 288 | 8.0 | 13.0 | 0.00 | 0.29 | 0.22 | 62 | 1008.2 |
| 20260507150624 | 57 | 308 | 6.0 | 12.0 | 0.00 | 0.29 | 0.22 | 65 | 1008.4 |
| 20260507145603 | 58 | 317 | 9.0 | 13.0 | 0.00 | 0.29 | 0.22 | 60 | 1008.5 |
| 20260507144603 | 58 | 316 | 10.0 | 15.0 | 0.00 | 0.29 | 0.22 | 61 | 1008.4 |
| 20260507143603 | 57 | 312 | 11.0 | 15.0 | 0.00 | 0.29 | 0.22 | 65 | 1008.7 |
| 20260507142602 | 57 | 298 | 7.0 | 11.0 | 0.00 | 0.29 | 0.22 | 67 | 1008.9 |
| 20260507141603 | 56 | 324 | 9.0 | 16.0 | 0.00 | 0.29 | 0.22 | 68 | 1008.8 |
| 20260507140602 | 56 | 308 | 11.0 | 18.0 | 0.00 | 0.29 | 0.22 | 72 | 1008.6 |
| 20260507135645 | 55 | 316 | 6.0 | 16.0 | 0.00 | 0.29 | 0.22 | 75 | 1008.9 |
| 20260507134603 | 54 | 323 | 11.0 | 16.0 | 0.00 | 0.29 | 0.22 | 75 | 1008.7 |
| 20260507133602 | 54 | 325 | 6.0 | 13.0 | 0.00 | 0.29 | 0.22 | 79 | 1008.9 |
| 20260507132602 | 53 | 324 | 8.0 | 12.0 | 0.00 | 0.29 | 0.22 | 86 | 1008.8 |
| 20260507131603 | 52 | 302 | 8.0 | 14.0 | 0.00 | 0.29 | 0.22 | 90 | 1008.7 |
| 20260507130602 | 51 | 309 | 8.0 | 17.0 | 0.00 | 0.29 | 0.22 | 92 | 1009.0 |
| 20260507125603 | 51 | 303 | 7.0 | 13.0 | 0.00 | 0.29 | 0.22 | 95 | 1008.8 |
| 20260507123603 | 49 | 301 | 8.0 | 12.0 | 0.00 | 0.29 | 0.22 | 96 | 1009.0 |
| 20260507122603 | 48 | 294 | 9.0 | 14.0 | 0.00 | 0.29 | 0.22 | 96 | 1009.3 |
| 20260507121603 | 48 | 291 | 9.0 | 13.0 | 0.00 | 0.29 | 0.22 | 96 | 1009.0 |
| 20260507120602 | 47 | 301 | 9.0 | 14.0 | 0.00 | 0.29 | 0.22 | 96 | 1008.6 |
| 20260507115603 | 47 | 295 | 9.0 | 14.0 | 0.00 | 0.29 | 0.22 | 96 | 1008.7 |
| 20260507114602 | 47 | 302 | 9.0 | 12.0 | 0.00 | 0.29 | 0.22 | 96 | 1008.7 |
| 20260507113624 | 47 | 297 | 8.0 | 12.0 | 0.00 | 0.29 | 0.22 | 96 | 1008.8 |
| 20260507112602 | 46 | 305 | 8.0 | 12.0 | 0.00 | 0.29 | 0.22 | 96 | 1008.6 |
| 20260507111603 | 46 | 304 | 7.0 | 12.0 | 0.00 | 0.29 | 0.22 | 96 | 1008.6 |
| 20260507110602 | 46 | 316 | 8.0 | 10.0 | 0.00 | 0.29 | 0.22 | 96 | 1008.4 |
| 20260507105603 | 46 | 318 | 5.0 | 9.0 | 0.07 | 0.29 | 0.22 | 96 | 1008.5 |
| 20260507104602 | 46 | 317 | 8.0 | 12.0 | 0.07 | 0.29 | 0.22 | 96 | 1008.1 |
| 20260507103603 | 46 | 303 | 7.0 | 10.0 | 0.06 | 0.28 | 0.21 | 96 | 1008.6 |
| 20260507102602 | 46 | 287 | 7.0 | 9.0 | 0.03 | 0.25 | 0.18 | 95 | 1008.9 |
| 20260507101603 | 46 | 310 | 5.0 | 12.0 | 0.02 | 0.24 | 0.17 | 95 | 1008.6 |
| 20260507100602 | 46 | 314 | 10.0 | 15.0 | 0.01 | 0.23 | 0.16 | 95 | 1008.5 |
| 20260507095603 | 46 | 310 | 9.0 | 16.0 | 0.03 | 0.21 | 0.14 | 95 | 1008.5 |
| 20260507094603 | 46 | 320 | 9.0 | 17.0 | 0.03 | 0.21 | 0.14 | 95 | 1007.9 |
| 20260507093603 | 47 | 318 | 11.0 | 17.0 | 0.02 | 0.20 | 0.13 | 95 | 1008.2 |
| 20260507092603 | 47 | 316 | 10.0 | 15.0 | 0.01 | 0.19 | 0.12 | 95 | 1008.3 |
| 20260507091603 | 47 | 310 | 10.0 | 17.0 | 0.01 | 0.19 | 0.12 | 95 | 1007.9 |
| 20260507090602 | 47 | 321 | 14.0 | 20.0 | 0.01 | 0.19 | 0.12 | 94 | 1007.4 |
| 20260507085603 | 48 | 312 | 12.0 | 18.0 | 0.07 | 0.17 | 0.10 | 94 | 1007.6 |
| 20260507084602 | 48 | 307 | 11.0 | 16.0 | 0.06 | 0.16 | 0.09 | 94 | 1007.7 |
| 20260507083603 | 49 | 300 | 11.0 | 16.0 | 0.05 | 0.15 | 0.08 | 94 | 1008.0 |
| 20260507082602 | 49 | 306 | 10.0 | 16.0 | 0.03 | 0.13 | 0.06 | 94 | 1007.5 |
| 20260507081603 | 49 | 320 | 11.0 | 16.0 | 0.02 | 0.12 | 0.05 | 93 | 1007.4 |
| 20260507080602 | 50 | 300 | 10.0 | 17.0 | 0.00 | 0.10 | 0.03 | 93 | 1008.0 |
| 20260507075603 | 50 | 301 | 10.0 | 18.0 | 0.02 | 0.09 | 0.02 | 92 | 1007.6 |
| 20260507074603 | 51 | 307 | 13.0 | 25.0 | 0.02 | 0.09 | 0.02 | 90 | 1007.6 |
| 20260507073603 | 52 | 305 | 14.0 | 20.0 | 0.00 | 0.07 | 0.00 | 89 | 1007.7 |
| 20260507072603 | 52 | 320 | 12.0 | 17.0 | 0.00 | 0.07 | 0.00 | 91 | 1006.8 |
| 20260507071623 | 52 | 311 | 12.0 | 15.0 | 0.00 | 0.07 | 0.00 | 92 | 1006.9 |
| 20260507070603 | 52 | 311 | 11.0 | 16.0 | 0.00 | 0.07 | 0.00 | 92 | 1006.7 |
| 20260507065602 | 52 | 315 | 10.0 | 17.0 | 0.00 | 0.07 | 0.00 | 92 | 1006.9 |
| 20260507064603 | 53 | 308 | 12.0 | 18.0 | 0.00 | 0.07 | 0.00 | 93 | 1006.9 |
| 20260507061603 | 53 | 291 | 10.0 | 16.0 | 0.00 | 0.07 | 0.00 | 94 | 1006.9 |
| 20260507060602 | 54 | 304 | 11.0 | 17.0 | 0.00 | 0.07 | 0.00 | 95 | 1007.1 |
| 20260507054603 | 55 | 301 | 11.0 | 17.0 | 0.00 | 0.07 | 0.00 | 96 | 1007.2 |
| 20260507053603 | 56 | 288 | 10.0 | 16.0 | 0.00 | 0.07 | 0.00 | 97 | 1007.5 |
| 20260507052623 | 56 | 285 | 11.0 | 17.0 | 0.00 | 0.07 | 0.00 | 97 | 1007.6 |
| 20260507051603 | 56 | 277 | 11.0 | 16.0 | 0.00 | 0.07 | 0.00 | 97 | 1007.5 |
| 20260507050602 | 57 | 275 | 9.0 | 15.0 | 0.00 | 0.07 | 0.00 | 97 | 1007.3 |
| 20260507045603 | 57 | 278 | 10.0 | 14.0 | 0.01 | 0.07 | 0.07 | 97 | 1007.5 |
| 20260507044602 | 57 | 269 | 10.0 | 16.0 | 0.01 | 0.07 | 0.07 | 97 | 1007.4 |
| 20260507043603 | 57 | 261 | 13.0 | 17.0 | 0.01 | 0.07 | 0.07 | 97 | 1007.5 |
| 20260507042602 | 57 | 252 | 10.0 | 16.0 | 0.01 | 0.07 | 0.07 | 97 | 1007.3 |
| 20260507041603 | 57 | 246 | 11.0 | 18.0 | 0.01 | 0.07 | 0.07 | 97 | 1007.4 |
| 20260507040644 | 57 | 246 | 11.0 | 16.0 | 0.00 | 0.06 | 0.06 | 97 | 1007.3 |
| 20260507035603 | 57 | 248 | 9.0 | 18.0 | 0.00 | 0.06 | 0.06 | 97 | 1007.5 |
| 20260507034602 | 56 | 230 | 13.0 | 21.0 | 0.00 | 0.06 | 0.06 | 97 | 1007.5 |
| 20260507032602 | 56 | 217 | 14.0 | 21.0 | 0.00 | 0.06 | 0.06 | 97 | 1007.4 |
| 20260507031624 | 56 | 222 | 14.0 | 20.0 | 0.00 | 0.06 | 0.06 | 97 | 1007.2 |
| 20260507030603 | 56 | 221 | 12.0 | 19.0 | 0.00 | 0.06 | 0.06 | 97 | 1007.1 |
| 20260507025603 | 56 | 215 | 13.0 | 20.0 | 0.00 | 0.06 | 0.06 | 97 | 1007.0 |
| 20260507024602 | 56 | 213 | 14.0 | 21.0 | 0.00 | 0.06 | 0.06 | 97 | 1006.9 |
| 20260507023603 | 56 | 212 | 14.0 | 22.0 | 0.00 | 0.06 | 0.06 | 97 | 1007.0 |
| 20260507021603 | 56 | 211 | 14.0 | 23.0 | 0.00 | 0.06 | 0.06 | 96 | 1007.0 |
| 20260507020602 | 56 | 209 | 15.0 | 22.0 | 0.00 | 0.06 | 0.06 | 96 | 1007.1 |
| 20260507015603 | 55 | 197 | 14.0 | 22.0 | 0.00 | 0.06 | 0.06 | 96 | 1007.0 |
| 20260507014602 | 55 | 198 | 14.0 | 24.0 | 0.00 | 0.06 | 0.06 | 96 | 1007.2 |
| 20260507013603 | 55 | 202 | 15.0 | 23.0 | 0.00 | 0.06 | 0.06 | 96 | 1007.3 |
| 20260507012603 | 55 | 205 | 14.0 | 21.0 | 0.00 | 0.06 | 0.06 | 96 | 1007.5 |
| 20260507011603 | 55 | 212 | 15.0 | 22.0 | 0.00 | 0.06 | 0.06 | 96 | 1007.6 |
| 20260507010603 | 55 | 212 | 13.0 | 20.0 | 0.00 | 0.06 | 0.06 | 96 | 1007.6 |
| 20260507005603 | 55 | 216 | 15.0 | 23.0 | 0.00 | 0.06 | 0.06 | 96 | 1007.7 |
| 20260507004602 | 55 | 207 | 13.0 | 25.0 | 0.00 | 0.06 | 0.06 | 96 | 1007.6 |
| 20260507002624 | 55 | 201 | 18.0 | 34.0 | 0.00 | 0.06 | 0.06 | 96 | 1007.4 |
| 20260507001602 | 55 | 192 | 20.0 | 31.0 | 0.00 | 0.06 | 0.06 | 96 | 1007.4 |
| 20260507000603 | 55 | 200 | 17.0 | 32.0 | 0.00 | 0.06 | 0.06 | 96 | 1007.3 |
| 20260506235624 | 55 | 195 | 18.0 | 33.0 | 0.00 | 0.06 | 0.06 | 96 | 1007.3 |
| 20260506234624 | 55 | 191 | 21.0 | 33.0 | 0.00 | 0.06 | 0.06 | 96 | 1007.2 |
| 20260506233603 | 55 | 193 | 19.0 | 33.0 | 0.00 | 0.06 | 0.06 | 95 | 1007.1 |
| 20260506232602 | 55 | 191 | 20.0 | 31.0 | 0.00 | 0.06 | 0.06 | 95 | 1007.2 |
| 20260506231603 | 55 | 184 | 22.0 | 35.0 | 0.00 | 0.06 | 0.06 | 95 | 1007.2 |
| 20260506230602 | 55 | 193 | 17.0 | 28.0 | 0.00 | 0.06 | 0.06 | 95 | 1007.3 |
| 20260506225602 | 55 | 191 | 16.0 | 29.0 | 0.01 | 0.06 | 0.06 | 95 | 1007.4 |
| 20260506224603 | 56 | 188 | 15.0 | 31.0 | 0.01 | 0.06 | 0.06 | 95 | 1007.3 |
| 20260506223602 | 56 | 188 | 16.0 | 36.0 | 0.01 | 0.06 | 0.06 | 95 | 1007.4 |
| 20260506222645 | 56 | 189 | 15.0 | 34.0 | 0.00 | 0.05 | 0.05 | 95 | 1007.6 |
| 20260506221603 | 56 | 187 | 19.0 | 31.0 | 0.00 | 0.05 | 0.05 | 94 | 1007.6 |
| 20260506220603 | 56 | 188 | 18.0 | 35.0 | 0.00 | 0.05 | 0.05 | 94 | 1007.8 |
| 20260506215602 | 57 | 194 | 20.0 | 32.0 | 0.02 | 0.05 | 0.05 | 94 | 1007.8 |
| 20260506214603 | 57 | 196 | 18.0 | 29.0 | 0.01 | 0.04 | 0.04 | 94 | 1007.9 |
| 20260506213602 | 57 | 191 | 19.0 | 31.0 | 0.01 | 0.04 | 0.04 | 93 | 1007.9 |
| 20260506212602 | 57 | 197 | 19.0 | 34.0 | 0.01 | 0.04 | 0.04 | 93 | 1007.9 |
| 20260506211624 | 57 | 192 | 17.0 | 36.0 | 0.01 | 0.04 | 0.04 | 93 | 1008.0 |
| 20260506210602 | 58 | 198 | 20.0 | 28.0 | 0.00 | 0.03 | 0.03 | 92 | 1008.0 |
| 20260506205603 | 58 | 192 | 20.0 | 37.0 | 0.02 | 0.02 | 0.02 | 91 | 1008.1 |
| 20260506204602 | 58 | 192 | 20.0 | 33.0 | 0.01 | 0.01 | 0.01 | 90 | 1008.0 |
| 20260506203603 | 59 | 195 | 18.0 | 33.0 | 0.01 | 0.01 | 0.01 | 90 | 1008.3 |
| 20260506202602 | 59 | 193 | 24.0 | 36.0 | 0.00 | 0.00 | 0.00 | 89 | 1008.3 |
| 20260506201603 | 59 | 188 | 24.0 | 36.0 | 0.00 | 0.00 | 0.00 | 87 | 1008.3 |
| 20260506200603 | 60 | 181 | 17.0 | 32.0 | 0.00 | 0.00 | 0.00 | 85 | 1008.4 |
| 20260506195603 | 61 | 196 | 23.0 | 36.0 | 0.00 | 0.00 | 0.00 | 84 | 1008.4 |
| 20260506194602 | 61 | 188 | 20.0 | 31.0 | 0.00 | 0.00 | 0.00 | 81 | 1008.4 |
| 20260506193603 | 61 | 187 | 19.0 | 33.0 | 0.00 | 0.00 | 0.00 | 79 | 1008.6 |
| 20260506192624 | 62 | 196 | 19.0 | 28.0 | 0.00 | 0.00 | 0.00 | 78 | 1008.6 |